Élőkép

Információk

Albatrosz Repülő Egyesület
8000 Székesfehérvár,
Radványi utca 6.

Adószám:
19092908-2-07

Bankszámla szám:
Budapest Bank
10102952-01361819-00000001

Telefon: +36 30 9598-897

Telephey: Börgönd repülőtér

Börgöndi repülõtér

LHBP METAR/TAF

[source: ADDS]
METAR
TAF LHBP 191700Z 1918/2018 VRB03KT CAVOK TEMPO 2009/2015 SCT025 TAF
TAF LHBP 191700Z 1918/2018 VRB03KT CAVOK TEMPO 2009/2015 SCT025 =
SR / SS: 04:31 / 16:51 UTC (Börgönd 2014-09-19)
Hungarian Chinese (Simplified) Croatian Czech English Finnish French German Hebrew Italian Japanese Polish Portuguese Romanian Russian Serbian Slovak Slovenian Spanish

Belépés tagoknak